createdAt,value
2023-02-16T00:01:02.355Z,-0.27
2023-02-16T00:03:29.376Z,-0.30
2023-02-16T00:05:55.785Z,-0.35
2023-02-16T00:08:22.117Z,-0.36
2023-02-16T00:11:08.432Z,-0.35
2023-02-16T00:13:52.716Z,-0.26
2023-02-16T00:16:23.430Z,-0.54
2023-02-16T00:18:50.244Z,-0.45
2023-02-16T00:21:16.955Z,-0.37
2023-02-16T00:23:43.367Z,-0.35
2023-02-16T00:26:17.878Z,-0.36
2023-02-16T00:28:44.823Z,-0.21
2023-02-16T00:31:21.770Z,-0.26
2023-02-16T00:33:48.280Z,-0.23
2023-02-16T00:36:14.596Z,-0.25
2023-02-16T00:38:40.874Z,-0.33
2023-02-16T00:41:34.552Z,-0.23
2023-02-16T00:44:00.870Z,-0.23
2023-02-16T00:46:27.235Z,-0.28
2023-02-16T00:48:53.616Z,-0.21
2023-02-16T00:51:25.829Z,-0.40
2023-02-16T00:53:52.706Z,-0.35
2023-02-16T00:56:20.652Z,-0.40
2023-02-16T00:58:48.387Z,-0.31
2023-02-16T01:01:15.909Z,-0.34
2023-02-16T01:03:43.405Z,-0.37
2023-02-16T01:06:28.994Z,-0.31
2023-02-16T01:09:19.376Z,-0.49
2023-02-16T01:11:45.689Z,-0.61
2023-02-16T01:14:12.964Z,-0.35
2023-02-16T01:16:40.659Z,-0.33
2023-02-16T01:19:07.381Z,-0.35
2023-02-16T01:21:33.684Z,-0.36
2023-02-16T01:24:00.588Z,-0.26
2023-02-16T01:26:26.956Z,-0.30
2023-02-16T01:28:53.320Z,-0.33
2023-02-16T01:31:19.746Z,-0.37
2023-02-16T01:33:46.110Z,-0.39
2023-02-16T01:36:38.596Z,-0.26
2023-02-16T01:39:05.496Z,-0.19
2023-02-16T01:41:46.173Z,-0.20
2023-02-16T01:44:17.750Z,-0.26
2023-02-16T01:46:49.529Z,-0.27
2023-02-16T01:49:17.662Z,-0.28
2023-02-16T01:51:53.237Z,-0.21
2023-02-16T01:54:42.898Z,-0.24
2023-02-16T01:57:12.370Z,-0.29
2023-02-16T02:00:01.738Z,-0.34
2023-02-16T02:02:40.884Z,-0.33
2023-02-16T02:05:37.881Z,-0.41
2023-02-16T02:08:07.320Z,-0.48
2023-02-16T02:10:39.843Z,-0.59
2023-02-16T02:13:29.558Z,-0.37
2023-02-16T02:15:58.071Z,-0.37
2023-02-16T02:18:24.601Z,-0.38
2023-02-16T02:21:15.789Z,-0.37
2023-02-16T02:23:47.875Z,-0.40
2023-02-16T02:26:48.314Z,-0.41
2023-02-16T02:29:14.592Z,-0.40
2023-02-16T02:32:04.360Z,-0.33
2023-02-16T02:34:42.016Z,-0.35
2023-02-16T02:37:11.449Z,-0.42
2023-02-16T02:39:57.023Z,-0.46
2023-02-16T02:42:29.787Z,-0.35
2023-02-16T02:45:04.328Z,-0.35
2023-02-16T02:47:44.378Z,-0.40
2023-02-16T02:51:03.109Z,-0.42
2023-02-16T02:53:29.915Z,-0.33
2023-02-16T02:56:17.375Z,-0.34
2023-02-16T02:59:04.748Z,-0.35
2023-02-16T03:01:32.436Z,-0.41
2023-02-16T03:04:00.731Z,-0.57
2023-02-16T03:06:29.728Z,-0.48
2023-02-16T03:09:00.346Z,-0.46
2023-02-16T03:11:48.180Z,-0.49
2023-02-16T03:14:14.836Z,-0.46
2023-02-16T03:16:44.502Z,-0.49
2023-02-16T03:19:31.237Z,-0.48
2023-02-16T03:22:17.019Z,-0.53
2023-02-16T03:25:02.458Z,-0.58
2023-02-16T03:27:49.682Z,-0.62
2023-02-16T03:30:17.185Z,-0.56
2023-02-16T03:32:44.300Z,-0.49
2023-02-16T03:35:12.678Z,-0.53
2023-02-16T03:37:40.133Z,-0.54
2023-02-16T03:40:26.608Z,-0.60
2023-02-16T03:42:53.024Z,-0.61
2023-02-16T03:45:21.108Z,-0.53
2023-02-16T03:47:47.391Z,-0.74
2023-02-16T03:50:13.749Z,-0.84
2023-02-16T03:52:40.054Z,-0.57
2023-02-16T03:55:06.857Z,-0.57
2023-02-16T03:57:33.209Z,-0.67
2023-02-16T03:59:59.585Z,-0.73
2023-02-16T04:02:27.408Z,-0.78
2023-02-16T04:04:53.763Z,-0.83
2023-02-16T04:07:20.370Z,-0.89
2023-02-16T04:09:46.684Z,-0.90
2023-02-16T04:12:31.769Z,-0.96
2023-02-16T04:14:58.050Z,-1.04
2023-02-16T04:17:24.593Z,-0.94
2023-02-16T04:19:50.996Z,-1.07
2023-02-16T04:22:17.296Z,-1.09
2023-02-16T04:24:43.640Z,-1.06
2023-02-16T04:27:10.010Z,-1.16
2023-02-16T04:29:36.301Z,-1.12
2023-02-16T04:32:02.740Z,-1.01
2023-02-16T04:34:29.238Z,-1.04
2023-02-16T04:36:55.556Z,-1.09
2023-02-16T04:39:21.942Z,-1.06
2023-02-16T04:41:48.243Z,-1.22
2023-02-16T04:44:14.543Z,-1.23
2023-02-16T04:46:40.876Z,-1.25
2023-02-16T04:49:07.248Z,-1.24
2023-02-16T04:51:33.593Z,-1.22
2023-02-16T04:53:59.948Z,-1.21
2023-02-16T04:56:26.328Z,-1.31
2023-02-16T04:58:52.608Z,-1.29
2023-02-16T05:01:23.307Z,-1.27
2023-02-16T05:03:49.848Z,-1.34
2023-02-16T05:06:16.748Z,-1.25
2023-02-16T05:08:43.164Z,-1.28
2023-02-16T05:11:28.201Z,-1.24
2023-02-16T05:14:14.992Z,-1.39
2023-02-16T05:16:41.733Z,-1.41
2023-02-16T05:19:08.311Z,-1.52
2023-02-16T05:21:35.717Z,-1.54
2023-02-16T05:24:03.654Z,-1.52
2023-02-16T05:26:30.321Z,-1.50
2023-02-16T05:28:57.277Z,-1.46
2023-02-16T05:31:24.398Z,-1.42
2023-02-16T05:33:50.954Z,-1.48
2023-02-16T05:36:17.317Z,-1.56
2023-02-16T05:38:43.767Z,-1.56
2023-02-16T05:41:10.227Z,-1.52
2023-02-16T05:43:36.515Z,-1.50
2023-02-16T05:46:09.420Z,-1.57
2023-02-16T05:48:35.753Z,-1.69
2023-02-16T05:51:02.493Z,-1.70
2023-02-16T05:53:29.041Z,-1.63
2023-02-16T05:55:55.343Z,-1.70
2023-02-16T05:58:21.738Z,-1.68
2023-02-16T06:00:48.189Z,-1.62
2023-02-16T06:03:14.456Z,-1.66
2023-02-16T06:05:40.782Z,-1.54
2023-02-16T06:08:08.139Z,-1.51
2023-02-16T06:10:34.464Z,-1.51
2023-02-16T06:13:00.771Z,-1.46
2023-02-16T06:15:27.313Z,-1.35
2023-02-16T06:17:53.609Z,-1.36
2023-02-16T06:20:20.518Z,-1.38
2023-02-16T06:22:46.828Z,-1.45
2023-02-16T06:25:13.140Z,-1.31
2023-02-16T06:27:39.429Z,-1.34
2023-02-16T06:30:06.225Z,-1.26
2023-02-16T06:32:33.510Z,-1.26
2023-02-16T06:34:59.845Z,-1.24
2023-02-16T06:37:26.182Z,-1.21
2023-02-16T06:39:52.460Z,-1.32
2023-02-16T06:42:18.780Z,-1.16
2023-02-16T06:44:45.064Z,-1.15
2023-02-16T06:47:11.454Z,-1.08
2023-02-16T06:49:37.780Z,-1.17
2023-02-16T06:52:04.517Z,-1.09
2023-02-16T06:54:30.867Z,-1.02
2023-02-16T06:56:57.163Z,-1.11
2023-02-16T06:59:23.488Z,-1.07
2023-02-16T07:01:49.789Z,-1.08
2023-02-16T07:04:16.059Z,-0.95
2023-02-16T07:06:42.668Z,-0.88
2023-02-16T07:09:10.592Z,-0.79
2023-02-16T07:11:37.942Z,-0.79
2023-02-16T07:14:04.369Z,-0.80
2023-02-16T07:16:30.742Z,-0.74
2023-02-16T07:18:57.127Z,-0.69
2023-02-16T07:21:23.654Z,-0.67
2023-02-16T07:23:49.981Z,-0.75
2023-02-16T07:26:16.308Z,-0.74
2023-02-16T07:28:42.671Z,-0.60
2023-02-16T07:31:10.774Z,-0.64
2023-02-16T07:33:37.581Z,-0.58
2023-02-16T07:36:04.162Z,-0.53
2023-02-16T07:38:30.793Z,-0.54
2023-02-16T07:40:57.878Z,-0.47
2023-02-16T07:43:24.967Z,-0.43
2023-02-16T07:45:51.354Z,-0.42
2023-02-16T07:48:18.115Z,-0.48
2023-02-16T07:50:44.455Z,-0.34
2023-02-16T07:53:12.876Z,-0.20
2023-02-16T07:55:40.591Z,-0.15
2023-02-16T07:58:07.368Z,0.29
2023-02-16T08:00:34.172Z,0.40
2023-02-16T08:03:01.131Z,0.27
2023-02-16T08:05:27.600Z,0.33
2023-02-16T08:07:53.930Z,0.51
2023-02-16T08:10:20.543Z,0.69
2023-02-16T08:12:46.999Z,0.59
2023-02-16T08:15:13.312Z,0.81
2023-02-16T08:17:39.657Z,0.86
2023-02-16T08:20:08.158Z,1.01
2023-02-16T08:22:35.004Z,1.04
2023-02-16T08:25:01.434Z,1.15
2023-02-16T08:27:27.835Z,1.18
2023-02-16T08:29:54.531Z,1.19
2023-02-16T08:32:20.964Z,1.12
2023-02-16T08:34:47.418Z,1.23
2023-02-16T08:37:13.728Z,1.41
2023-02-16T08:39:40.524Z,1.38
2023-02-16T08:42:07.057Z,1.51
2023-02-16T08:44:33.540Z,1.43
2023-02-16T08:47:00.819Z,1.66
2023-02-16T08:49:27.639Z,1.58
2023-02-16T08:51:55.564Z,1.78
2023-02-16T08:54:24.297Z,1.77
2023-02-16T08:56:50.667Z,1.90
2023-02-16T08:59:18.095Z,1.89
2023-02-16T09:01:44.844Z,2.03
2023-02-16T09:04:11.760Z,1.95
2023-02-16T09:06:38.984Z,2.27
2023-02-16T09:09:05.742Z,2.19
2023-02-16T09:11:32.755Z,2.40
2023-02-16T09:13:59.100Z,2.56
2023-02-16T09:16:28.004Z,2.59
2023-02-16T09:18:54.905Z,2.67
2023-02-16T09:21:25.486Z,2.74
2023-02-16T09:23:54.097Z,2.85
2023-02-16T09:26:21.378Z,3.05
2023-02-16T09:28:48.898Z,2.98
2023-02-16T09:31:25.383Z,3.05
2023-02-16T09:33:52.652Z,3.15
2023-02-16T09:36:18.969Z,3.16
2023-02-16T09:38:47.395Z,3.18
2023-02-16T09:41:16.496Z,3.35
2023-02-16T09:43:49.433Z,3.33
2023-02-16T09:46:17.680Z,3.58
2023-02-16T09:48:49.401Z,3.57
2023-02-16T09:51:36.106Z,3.62
2023-02-16T09:54:22.798Z,3.70
2023-02-16T09:56:55.647Z,3.62
2023-02-16T09:59:33.150Z,3.62
2023-02-16T10:02:18.254Z,3.64
2023-02-16T10:04:47.681Z,3.67
2023-02-16T10:07:37.969Z,3.75
2023-02-16T10:10:05.918Z,3.84
2023-02-16T10:12:37.296Z,3.78
2023-02-16T10:15:07.484Z,3.93
2023-02-16T10:17:41.794Z,4.04
2023-02-16T10:20:13.991Z,4.10
2023-02-16T10:22:55.850Z,4.11
2023-02-16T10:25:29.100Z,4.30
2023-02-16T10:28:05.877Z,4.31
2023-02-16T10:30:32.745Z,4.40
2023-02-16T10:33:12.726Z,4.51
2023-02-16T10:35:56.837Z,4.61
2023-02-16T10:38:35.886Z,4.56
2023-02-16T10:41:16.965Z,4.68
2023-02-16T10:43:46.448Z,4.78
2023-02-16T10:46:17.118Z,4.90
2023-02-16T10:48:44.353Z,4.78
2023-02-16T10:51:12.733Z,5.09
2023-02-16T10:54:00.907Z,5.20
2023-02-16T10:56:36.293Z,5.22
2023-02-16T10:59:06.071Z,5.28
2023-02-16T11:01:39.785Z,5.43
2023-02-16T11:04:06.592Z,5.59
2023-02-16T11:06:36.403Z,5.67
2023-02-16T11:09:04.237Z,5.75
2023-02-16T11:11:35.437Z,5.78
2023-02-16T11:14:09.095Z,6.05
2023-02-16T11:16:35.846Z,6.02
2023-02-16T11:19:18.268Z,5.90
2023-02-16T11:21:49.127Z,6.07
2023-02-16T11:24:26.151Z,6.19
2023-02-16T11:27:27.939Z,6.29
2023-02-16T11:30:22.053Z,6.19
2023-02-16T11:32:49.339Z,6.32
2023-02-16T11:35:16.148Z,6.29
2023-02-16T11:37:42.615Z,6.20
2023-02-16T11:40:20.502Z,6.28
2023-02-16T11:42:48.332Z,6.25
2023-02-16T11:45:34.939Z,5.54
2023-02-16T11:48:04.290Z,6.00
2023-02-16T11:50:32.625Z,6.04
2023-02-16T11:53:19.170Z,6.26
2023-02-16T11:55:46.720Z,6.36
2023-02-16T11:58:18.381Z,6.16
2023-02-16T12:01:03.864Z,6.41
2023-02-16T12:03:47.048Z,6.41
2023-02-16T12:06:16.866Z,6.57
2023-02-16T12:09:07.235Z,6.58
2023-02-16T12:11:36.922Z,6.85
2023-02-16T12:14:22.253Z,6.98
2023-02-16T12:16:59.963Z,7.02
2023-02-16T12:19:38.270Z,7.08
2023-02-16T12:22:04.555Z,7.27
2023-02-16T12:24:47.849Z,7.27
2023-02-16T12:27:23.471Z,7.33
2023-02-16T12:30:21.702Z,7.42
2023-02-16T12:33:07.986Z,7.45
2023-02-16T12:35:49.641Z,7.60
2023-02-16T12:38:25.312Z,7.51
2023-02-16T12:41:06.977Z,7.49
2023-02-16T12:43:36.394Z,7.54
2023-02-16T12:46:11.907Z,7.69
2023-02-16T12:48:58.897Z,7.89
2023-02-16T12:51:30.895Z,7.93
2023-02-16T12:54:04.548Z,7.95
2023-02-16T12:56:42.038Z,8.11
2023-02-16T12:59:21.952Z,8.15
2023-02-16T13:01:49.388Z,8.07
2023-02-16T13:04:29.914Z,7.98
2023-02-16T13:07:01.181Z,8.04
2023-02-16T13:09:40.761Z,8.07
2023-02-16T13:12:19.433Z,8.21
2023-02-16T13:14:49.255Z,8.31
2023-02-16T13:17:15.614Z,8.09
2023-02-16T13:19:43.800Z,8.08
2023-02-16T13:22:16.848Z,7.90
2023-02-16T13:24:46.369Z,7.89
2023-02-16T13:27:30.121Z,7.82
2023-02-16T13:30:04.335Z,7.82
2023-02-16T13:32:45.776Z,7.99
2023-02-16T13:35:15.160Z,7.88
2023-02-16T13:37:50.800Z,7.83
2023-02-16T13:40:35.667Z,7.72
2023-02-16T13:43:20.876Z,7.64
2023-02-16T13:45:48.124Z,7.58
2023-02-16T13:48:16.260Z,7.56
2023-02-16T13:50:42.980Z,7.54
2023-02-16T13:53:20.027Z,7.50
2023-02-16T13:55:46.924Z,7.60
2023-02-16T13:58:13.393Z,7.57
2023-02-16T14:00:42.223Z,7.60
2023-02-16T14:03:17.542Z,7.54
2023-02-16T14:05:45.552Z,7.54
2023-02-16T14:08:18.146Z,7.46
2023-02-16T14:11:04.964Z,7.50
2023-02-16T14:13:37.294Z,7.47
2023-02-16T14:16:11.974Z,7.50
2023-02-16T14:18:59.209Z,7.46
2023-02-16T14:21:28.726Z,7.38
2023-02-16T14:23:59.058Z,7.43
2023-02-16T14:26:25.753Z,7.37
2023-02-16T14:28:52.058Z,7.53
2023-02-16T14:31:22.839Z,7.59
2023-02-16T14:34:02.171Z,7.70
2023-02-16T14:36:30.103Z,7.73
2023-02-16T14:38:58.398Z,7.81
2023-02-16T14:41:26.946Z,7.82
2023-02-16T14:43:58.900Z,7.84
2023-02-16T14:46:41.141Z,7.82
2023-02-16T14:49:26.298Z,7.82
2023-02-16T14:52:02.083Z,7.91
2023-02-16T14:54:29.578Z,7.86
2023-02-16T14:57:02.273Z,7.82
2023-02-16T14:59:35.650Z,7.89
2023-02-16T15:02:21.917Z,7.86
2023-02-16T15:04:48.332Z,7.77
2023-02-16T15:07:15.028Z,7.72
2023-02-16T15:09:42.194Z,7.69
2023-02-16T15:12:23.575Z,7.66
2023-02-16T15:14:51.677Z,7.57
2023-02-16T15:17:35.511Z,7.03
2023-02-16T15:20:31.591Z,7.21
2023-02-16T15:22:59.459Z,7.26
2023-02-16T15:25:38.433Z,7.25
2023-02-16T15:28:11.238Z,7.18
2023-02-16T15:30:37.603Z,7.18
2023-02-16T15:33:05.561Z,7.22
2023-02-16T15:35:39.794Z,7.25
2023-02-16T15:38:08.093Z,7.25
2023-02-16T15:40:35.249Z,7.22
2023-02-16T15:43:30.877Z,7.21
2023-02-16T15:45:57.741Z,7.19
2023-02-16T15:48:24.864Z,7.17
2023-02-16T15:50:55.963Z,7.24
2023-02-16T15:53:34.663Z,7.22
2023-02-16T15:56:02.994Z,7.20
2023-02-16T15:58:29.737Z,7.05
2023-02-16T16:00:56.793Z,7.19
2023-02-16T16:03:23.314Z,6.98
2023-02-16T16:05:58.808Z,7.00
2023-02-16T16:08:26.771Z,6.95
2023-02-16T16:10:53.676Z,6.93
2023-02-16T16:13:25.530Z,6.92
2023-02-16T16:15:53.776Z,6.90
2023-02-16T16:18:37.437Z,6.85
2023-02-16T16:21:04.913Z,6.78
2023-02-16T16:23:31.786Z,6.73
2023-02-16T16:25:58.781Z,6.72
2023-02-16T16:28:28.235Z,6.63
2023-02-16T16:31:07.261Z,6.59
2023-02-16T16:33:52.980Z,6.55
2023-02-16T16:36:19.430Z,6.54
2023-02-16T16:38:45.877Z,6.46
2023-02-16T16:41:27.484Z,6.45
2023-02-16T16:43:57.013Z,6.51
2023-02-16T16:46:25.067Z,6.45
2023-02-16T16:49:03.374Z,6.59
2023-02-16T16:51:42.823Z,6.62
2023-02-16T16:54:46.374Z,6.66
2023-02-16T16:57:15.524Z,6.64
2023-02-16T16:59:41.900Z,6.65
2023-02-16T17:02:10.317Z,6.58
2023-02-16T17:04:36.750Z,6.61
2023-02-16T17:07:03.233Z,6.57
2023-02-16T17:09:29.692Z,6.55
2023-02-16T17:11:56.113Z,6.62
2023-02-16T17:14:24.016Z,6.69
2023-02-16T17:16:52.012Z,6.62
2023-02-16T17:19:21.668Z,6.51
2023-02-16T17:21:48.405Z,6.46
2023-02-16T17:24:15.407Z,6.54
2023-02-16T17:26:41.972Z,6.44
2023-02-16T17:29:08.574Z,6.42
2023-02-16T17:31:34.989Z,6.43
2023-02-16T17:34:01.402Z,6.38
2023-02-16T17:36:28.118Z,6.39
2023-02-16T17:38:54.723Z,6.29
2023-02-16T17:41:23.607Z,6.31
2023-02-16T17:43:50.264Z,6.20
2023-02-16T17:46:17.220Z,6.22
2023-02-16T17:48:43.614Z,6.18
2023-02-16T17:51:14.047Z,6.22
2023-02-16T17:53:41.209Z,6.26
2023-02-16T17:56:10.627Z,6.25
2023-02-16T17:58:36.933Z,6.28
2023-02-16T18:01:03.655Z,6.32
2023-02-16T18:03:30.100Z,6.36
2023-02-16T18:05:56.390Z,6.36
2023-02-16T18:08:22.751Z,6.36
2023-02-16T18:10:53.403Z,6.36
2023-02-16T18:13:20.225Z,6.43
2023-02-16T18:15:47.649Z,6.49
2023-02-16T18:18:15.240Z,6.45
2023-02-16T18:20:41.921Z,6.39
2023-02-16T18:23:08.306Z,6.36
2023-02-16T18:25:35.187Z,6.32
2023-02-16T18:28:01.769Z,6.34
2023-02-16T18:30:28.255Z,6.33
2023-02-16T18:32:54.591Z,6.40
2023-02-16T18:35:20.931Z,6.32
2023-02-16T18:37:47.780Z,6.37
2023-02-16T18:40:19.467Z,6.31
2023-02-16T18:42:46.133Z,6.37
2023-02-16T18:45:12.748Z,6.36
2023-02-16T18:47:39.099Z,6.51
2023-02-16T18:50:05.957Z,6.51
2023-02-16T18:52:32.380Z,6.56
2023-02-16T18:54:58.829Z,6.56
2023-02-16T18:57:25.173Z,6.59
2023-02-16T18:59:51.524Z,6.36
2023-02-16T19:02:17.841Z,6.67
2023-02-16T19:04:44.353Z,6.62
2023-02-16T19:07:10.806Z,6.57
2023-02-16T19:09:37.231Z,6.48
2023-02-16T19:12:03.873Z,6.39
2023-02-16T19:14:30.243Z,6.54
2023-02-16T19:16:56.663Z,6.39
2023-02-16T19:19:22.996Z,6.60
2023-02-16T19:21:49.380Z,6.54
2023-02-16T19:24:15.686Z,6.49
2023-02-16T19:26:42.077Z,6.36
2023-02-16T19:29:08.414Z,6.32
2023-02-16T19:31:35.496Z,6.58
2023-02-16T19:34:02.550Z,6.62
2023-02-16T19:36:31.417Z,6.57
2023-02-16T19:38:58.469Z,6.58
2023-02-16T19:41:35.691Z,6.48
2023-02-16T19:44:02.419Z,6.50
2023-02-16T19:46:29.280Z,6.41
2023-02-16T19:48:56.147Z,6.54
2023-02-16T19:51:22.923Z,6.45
2023-02-16T19:53:49.260Z,6.41
2023-02-16T19:56:16.995Z,6.53
2023-02-16T19:58:43.332Z,6.51
2023-02-16T20:01:11.115Z,6.46
2023-02-16T20:03:37.821Z,6.33
2023-02-16T20:06:22.956Z,6.38
2023-02-16T20:08:49.917Z,6.36
2023-02-16T20:11:20.334Z,6.43
2023-02-16T20:13:46.876Z,6.47
2023-02-16T20:16:14.085Z,6.33
2023-02-16T20:18:40.864Z,6.31
2023-02-16T20:21:08.890Z,6.30
2023-02-16T20:23:35.543Z,6.36
2023-02-16T20:26:06.101Z,6.26
2023-02-16T20:28:32.780Z,6.30
2023-02-16T20:30:59.127Z,6.21
2023-02-16T20:33:25.475Z,6.13
2023-02-16T20:35:51.868Z,6.24
2023-02-16T20:38:18.602Z,6.09
2023-02-16T20:40:45.215Z,6.16
2023-02-16T20:43:11.688Z,6.16
2023-02-16T20:45:42.803Z,6.08
2023-02-16T20:48:09.400Z,5.91
2023-02-16T20:50:36.061Z,5.95
2023-02-16T20:53:02.449Z,5.96
2023-02-16T20:55:28.849Z,5.94
2023-02-16T20:57:55.349Z,5.95
2023-02-16T21:00:23.919Z,5.77
2023-02-16T21:02:50.352Z,5.91
2023-02-16T21:05:16.848Z,5.98
2023-02-16T21:07:43.254Z,6.03
2023-02-16T21:10:10.612Z,6.11
2023-02-16T21:12:36.969Z,6.10
2023-02-16T21:15:04.041Z,5.96
2023-02-16T21:17:30.496Z,6.20
2023-02-16T21:19:56.918Z,6.16
2023-02-16T21:22:24.656Z,6.17
2023-02-16T21:24:51.442Z,6.17
2023-02-16T21:27:17.747Z,6.22
2023-02-16T21:29:44.380Z,6.18
2023-02-16T21:32:11.432Z,6.16
2023-02-16T21:34:37.778Z,6.18
2023-02-16T21:37:04.283Z,6.18
2023-02-16T21:39:49.453Z,6.20
2023-02-16T21:42:15.741Z,6.40
2023-02-16T21:44:44.816Z,6.27
2023-02-16T21:47:30.967Z,6.25
2023-02-16T21:49:57.465Z,6.27
2023-02-16T21:52:23.828Z,6.34
2023-02-16T21:55:08.957Z,6.25
2023-02-16T21:57:35.290Z,6.32
2023-02-16T22:00:04.089Z,6.32
2023-02-16T22:02:30.448Z,6.24
2023-02-16T22:04:56.790Z,6.31
2023-02-16T22:07:23.389Z,6.27
2023-02-16T22:09:49.723Z,6.31
2023-02-16T22:12:15.999Z,6.24
2023-02-16T22:14:42.351Z,6.34
2023-02-16T22:17:08.692Z,6.44
2023-02-16T22:19:35.012Z,6.36
2023-02-16T22:22:01.336Z,6.32
2023-02-16T22:24:27.711Z,6.41
2023-02-16T22:26:54.076Z,6.37
2023-02-16T22:29:20.376Z,6.33
2023-02-16T22:31:47.568Z,6.29
2023-02-16T22:34:15.845Z,6.26
2023-02-16T22:36:42.211Z,6.32
2023-02-16T22:39:08.484Z,6.25
2023-02-16T22:41:34.952Z,6.23
2023-02-16T22:44:01.360Z,6.32
2023-02-16T22:46:28.183Z,6.30
2023-02-16T22:48:55.487Z,6.38
2023-02-16T22:51:22.406Z,6.29
2023-02-16T22:53:48.921Z,6.27
2023-02-16T22:56:16.802Z,6.22
2023-02-16T22:58:43.313Z,6.20
2023-02-16T23:01:13.644Z,6.32
2023-02-16T23:03:40.642Z,6.24
2023-02-16T23:06:11.218Z,6.21
2023-02-16T23:08:37.513Z,6.24
2023-02-16T23:11:04.103Z,6.21
2023-02-16T23:13:31.719Z,6.23
2023-02-16T23:16:02.959Z,6.42
2023-02-16T23:18:29.416Z,6.35
2023-02-16T23:20:55.709Z,6.28
2023-02-16T23:23:22.009Z,6.39
2023-02-16T23:25:49.130Z,6.33
2023-02-16T23:28:15.612Z,6.33
2023-02-16T23:30:45.992Z,6.30
2023-02-16T23:33:13.111Z,6.38
2023-02-16T23:35:40.369Z,6.38
2023-02-16T23:38:07.672Z,6.32
2023-02-16T23:40:34.124Z,6.30
2023-02-16T23:43:00.472Z,6.25
2023-02-16T23:45:26.910Z,6.22
2023-02-16T23:47:53.277Z,6.24
2023-02-16T23:50:19.632Z,6.25
2023-02-16T23:52:46.077Z,6.28
2023-02-16T23:55:12.392Z,6.13
2023-02-16T23:57:38.671Z,6.17
